Birmingham, AL (35296)

12:22 PM CDT on October 24, 2014 (GMT -0500)
Greenview Estates | Change Station
CLOSE
Current Station
Personal Weather Station
Location: Birmingham, AL
Elevation: 719 ft
Nearby Weather Stations

Elev 719 ft 33.41 °N, 86.82 °W | Updated 18 seconds ago

Clear
Clear
72.5 °F
Feels Like 77 °F
N
5.1
Wind Variable Wind from NNE

Today
High -- | Low -- °F
--% Chance of Precip.
Yesterday
High -- | Low -- °F
Precip. -- in
6:59 AM 6:03 PM
New Moon, 1% visible
Pressure 30.10 in
Visibility 10.0 miles
Clouds Clear
Heat Index 77 °F
Dew Point 47 °F
Humidity 41%
Rainfall 0.00 in
Snow Depth Not available.
UV 6 out of 12
Pollen 2.30 out of 12
Ozone Good
PM2.5 Good
Flu Activity Sporadic
METAR KBHM 241653Z 35007KT 10SM CLR 20/06 A3011 RMK AO2 SLP191 T02000056

More Conditions Fewer Conditions

Pressure 30.10 in
Visibility 10.0 miles
Clouds Clear
Heat Index 77 °F
Dew Point 47 °F
Humidity 41%
Rainfall 0.00 in
Snow Depth Not available.
UV 6 out of 12
Pollen 2.30 out of 12
Ozone Good
PM2.5 Good
Flu Activity Sporadic
METAR KBHM 241653Z 35007KT 10SM CLR 20/06 A3011 RMK AO2 SLP191 T02000056

More Conditions Fewer Conditions

10-Day Weather Forecast

Almanac

Astronomy

Oct. 24, 2014 Rise Set
Actual Time 6:59 AM CDT 6:03 PM CDT
Civil Twilight 6:33 AM CDT 6:28 PM CDT
Nautical Twilight 6:04 AM CDT 6:57 PM CDT
Astronomical Twilight 5:35 AM CDT 7:26 PM CDT
Moon 7:36 AM CDT 6:45 PM CDT
Length of Visible Light 11h 54m
Length of Day
11h 04m
Tomorrow will be 1m 55s shorter.
New Moon, 1% of the Moon is Illuminated
Today
New Moon
Oct 30
First Quarter
Nov 6
Full
Nov 14
Last Quarter
Nov 22
New

Today's Extremes

State Highs State Lows

Community

WunderPhotos

Upload Photos

1,764,620 photos uploaded!

WunderBlogs® & News

Nearby

Air Quality

  Air Quality AQ Index Pollutant
Yesterday Good
PM10
Yesterday Good
OZONE
Current Good
PM2.5
Current Good
OZONE
Friday Good
PM2.5

Snow Depth

Station Depth Elevation
No new snow has been reported.

Earthquake Activity

City Distance Mag. Time & Date
No recent earthquake activity has been reported nearby.
Minimum magnitude displayed is 2.5.

Coastal Water Temperatures

Place Temperature
No Stations Reporting

Nearby Weather Stations